»·PEaware :: DAL2788 KBUF-KJFK

DAL2788 :: KBUF-KJFK

FLIGHT INFORMATION

Flight Status: Arrived
Operator:
Delta Air Lines
More flights by this operator :: More flights under this callsign
Pilot: Tim K. (2)
Aircraft: BOEING 757-200
(B752)
More flights by this aircraft type
Origin: KBUF Buffalo Niagara Intl
United States
Destination: KJFK Kennedy Intl
United States
More flights between these airports :: More routes between these airports
Route: BUF5 SFK STENT J70 LVZ LENDY6
File this flight plan on PilotEdge
Remarks:
Altitude:
(Current/Filed)
33,000ft
Speed:
(Current/Filed)
450kts
Departed: 04-Feb-17 01:41 PM
Arrived: 04-Feb-17 03:53 PM
Distance/Time
Traveled:
261nm/2:12
Distance/Time
To Go:
Arrived

Flight Plot

Page will automatically refresh every two minutes.

Flight plan parsing failed; only flown route is shown


Map Options




Map Legend


Flown Route
Filed Route
Departure Airport
Arrival Airport
Navaid (VOR, NDB)
Fix

Horizontal Profiles

Position Reports

Time Latitude Longitude Heading Altitude Ground
Speed
04-Feb-17 13:33 42.935803 -78.729665 332 735ft 0kts
04-Feb-17 13:34 42.935803 -78.729665 332 735ft 0kts
04-Feb-17 13:35 42.935803 -78.729665 332 735ft 0kts
04-Feb-17 13:36 42.935803 -78.729665 332 735ft 0kts
04-Feb-17 13:37 42.935803 -78.729665 332 735ft 0kts
04-Feb-17 13:38 42.935639 -78.729572 352 735ft 0kts
04-Feb-17 13:39 42.935746 -78.722654 124 736ft 22kts
04-Feb-17 13:40 42.935477 -78.721248 302 735ft 7kts
04-Feb-17 13:41 42.946080 -78.755561 268 1902ft 146kts
04-Feb-17 13:42 42.906233 -78.750874 118 4126ft 264kts
04-Feb-17 13:43 42.861488 -78.665095 136 8132ft 295kts
04-Feb-17 13:44 42.861416 -78.665002 136 8137ft 295kts
04-Feb-17 13:45 42.861416 -78.665002 136 8137ft 295kts
04-Feb-17 13:46 42.861416 -78.665002 136 8137ft 295kts
04-Feb-17 13:47 42.861416 -78.665002 136 8137ft 295kts
04-Feb-17 13:48 42.861416 -78.665002 136 8137ft 295kts
04-Feb-17 13:49 42.861416 -78.665002 136 8137ft 295kts
04-Feb-17 13:50 42.861416 -78.665002 136 8137ft 295kts
04-Feb-17 13:51 42.861416 -78.665002 136 8137ft 295kts
04-Feb-17 13:52 42.861416 -78.665002 136 8137ft 295kts
04-Feb-17 13:53 42.861416 -78.665002 136 8137ft 295kts
04-Feb-17 13:54 42.820238 -78.616054 140 10748ft 307kts
04-Feb-17 13:55 42.752644 -78.541490 140 14231ft 324kts
04-Feb-17 13:56 42.679915 -78.464912 141 17225ft 340kts
04-Feb-17 13:57 42.604437 -78.383714 141 19877ft 355kts
04-Feb-17 13:58 42.527272 -78.298770 141 21255ft 364kts
04-Feb-17 13:59 42.448185 -78.213361 141 21264ft 364kts
04-Feb-17 14:00 42.369004 -78.128566 141 21264ft 364kts
04-Feb-17 14:01 42.290202 -78.043749 141 21264ft 364kts
04-Feb-17 14:02 42.210978 -77.959303 141 21264ft 364kts
04-Feb-17 14:03 42.131664 -77.875216 141 21211ft 364kts
04-Feb-17 14:04 42.052012 -77.791062 141 21210ft 364kts
04-Feb-17 14:05 41.972637 -77.707476 141 21210ft 364kts
04-Feb-17 14:06 41.893425 -77.624333 141 21210ft 364kts
04-Feb-17 14:07 41.813861 -77.541083 141 21210ft 364kts
04-Feb-17 14:08 41.734431 -77.458248 141 21210ft 364kts
04-Feb-17 14:09 41.686814 -77.345415 94 21223ft 364kts
04-Feb-17 14:10 41.678808 -77.211224 94 21210ft 364kts
04-Feb-17 14:11 41.656995 -77.080600 109 21212ft 364kts
04-Feb-17 14:12 41.652603 -77.064117 109 21211ft 364kts
04-Feb-17 14:13 41.652603 -77.064117 109 21211ft 364kts
04-Feb-17 14:14 41.652603 -77.064117 109 21211ft 364kts
04-Feb-17 14:15 41.652603 -77.064117 109 21211ft 364kts
04-Feb-17 14:16 41.652603 -77.064117 109 21211ft 364kts
04-Feb-17 14:17 41.652603 -77.064117 109 21211ft 364kts
04-Feb-17 14:18 41.652603 -77.064117 109 21211ft 364kts
04-Feb-17 14:19 41.652603 -77.064117 109 21211ft 364kts
04-Feb-17 14:20 41.652603 -77.064117 109 21211ft 364kts
04-Feb-17 14:21 41.652603 -77.064117 109 21211ft 364kts
04-Feb-17 14:22 41.652603 -77.064117 109 21211ft 364kts
04-Feb-17 14:23 41.652603 -77.064117 109 21211ft 364kts
04-Feb-17 14:24 41.652603 -77.064117 109 21211ft 364kts
04-Feb-17 14:25 41.652603 -77.064117 109 21211ft 364kts
04-Feb-17 14:26 41.652603 -77.064117 109 21211ft 364kts
04-Feb-17 14:27 41.652603 -77.064117 109 21211ft 364kts
04-Feb-17 14:28 41.652603 -77.064117 109 21211ft 364kts
04-Feb-17 14:29 41.652603 -77.064117 109 21211ft 364kts
04-Feb-17 14:30 41.652603 -77.064117 109 21211ft 364kts
04-Feb-17 14:31 41.652603 -77.064117 109 21211ft 364kts
04-Feb-17 14:32 41.652603 -77.064117 109 21211ft 364kts
04-Feb-17 14:33 41.652603 -77.064117 109 21211ft 364kts
04-Feb-17 14:34 41.652603 -77.064117 109 21211ft 364kts
04-Feb-17 14:35 41.652603 -77.064117 109 21211ft 364kts
04-Feb-17 14:36 41.652603 -77.064117 109 21211ft 364kts
04-Feb-17 14:37 41.652603 -77.064117 109 21211ft 364kts
04-Feb-17 14:38 41.652603 -77.064117 109 21211ft 364kts
04-Feb-17 14:39 41.652603 -77.064117 109 21211ft 364kts
04-Feb-17 14:40 41.652603 -77.064117 109 21211ft 364kts
04-Feb-17 14:41 41.652603 -77.064117 109 21211ft 364kts
04-Feb-17 14:42 41.652603 -77.064117 109 21211ft 364kts
04-Feb-17 14:43 41.652603 -77.064117 109 21211ft 364kts
04-Feb-17 14:44 41.652603 -77.064117 109 21211ft 364kts
04-Feb-17 14:45 41.652603 -77.064117 109 21211ft 364kts
04-Feb-17 14:46 41.652603 -77.064117 109 21211ft 364kts
04-Feb-17 14:47 41.652603 -77.064117 109 21211ft 364kts
04-Feb-17 14:48 41.652603 -77.064117 109 21211ft 364kts
04-Feb-17 14:49 41.652603 -77.064117 109 21211ft 364kts
04-Feb-17 14:50 41.652603 -77.064117 109 21211ft 364kts
04-Feb-17 14:51 41.652603 -77.064117 109 21211ft 364kts
04-Feb-17 14:52 41.652603 -77.064117 109 21211ft 364kts
04-Feb-17 14:53 41.652603 -77.064117 109 21211ft 364kts
04-Feb-17 14:54 41.652603 -77.064117 109 21211ft 364kts
04-Feb-17 14:55 41.652603 -77.064117 109 21211ft 364kts
04-Feb-17 14:56 41.652603 -77.064117 109 21211ft 364kts
04-Feb-17 14:57 41.652603 -77.064117 109 21211ft 364kts
04-Feb-17 14:58 41.652603 -77.064117 109 21211ft 364kts
04-Feb-17 14:59 41.652603 -77.064117 109 21211ft 364kts
04-Feb-17 15:00 41.652603 -77.064117 109 21211ft 364kts
04-Feb-17 15:01 41.652603 -77.064117 109 21211ft 364kts
04-Feb-17 15:02 41.652603 -77.064117 109 21211ft 364kts
04-Feb-17 15:03 41.652603 -77.064117 109 21211ft 364kts
04-Feb-17 15:04 41.652603 -77.064117 109 21211ft 364kts
04-Feb-17 15:05 41.642532 -77.026717 109 21210ft 364kts
04-Feb-17 15:06 41.607980 -76.899556 110 21263ft 364kts
04-Feb-17 15:07 41.573368 -76.773377 109 21317ft 364kts
04-Feb-17 15:08 41.538546 -76.646508 110 21318ft 364kts
04-Feb-17 15:09 41.503541 -76.519800 110 21318ft 364kts
04-Feb-17 15:10 41.468589 -76.393929 110 21318ft 364kts
04-Feb-17 15:11 41.434228 -76.269348 110 21291ft 364kts
04-Feb-17 15:12 41.398992 -76.143204 110 21291ft 364kts
04-Feb-17 15:13 41.363553 -76.017426 110 21291ft 364kts
04-Feb-17 15:14 41.327997 -75.891894 110 21291ft 364kts
04-Feb-17 15:15 41.292127 -75.765877 110 21291ft 364kts
04-Feb-17 15:16 41.255591 -75.641077 113 21292ft 364kts
04-Feb-17 15:17 41.214927 -75.518236 113 21291ft 364kts
04-Feb-17 15:18 41.174017 -75.396209 113 21217ft 363kts
04-Feb-17 15:19 41.135183 -75.279950 114 21210ft 363kts
04-Feb-17 15:20 41.094067 -75.158121 114 21244ft 362kts
04-Feb-17 15:21 41.052623 -75.036322 114 21291ft 364kts
04-Feb-17 15:22 41.010960 -74.914450 114 21291ft 364kts
04-Feb-17 15:23 40.985903 -74.786097 98 21292ft 364kts
04-Feb-17 15:24 40.971163 -74.653716 98 21291ft 364kts
04-Feb-17 15:25 40.956579 -74.521504 98 21317ft 364kts
04-Feb-17 15:26 40.941871 -74.389370 98 21318ft 364kts
04-Feb-17 15:27 40.927606 -74.258980 98 21318ft 364kts
04-Feb-17 15:28 40.913586 -74.134903 100 21293ft 316kts
04-Feb-17 15:29 40.856125 -74.061879 175 21335ft 311kts
04-Feb-17 15:30 40.788698 -74.117686 251 21348ft 311kts
04-Feb-17 15:31 40.809358 -74.222989 302 21341ft 311kts
04-Feb-17 15:32 40.861297 -74.311796 332 21329ft 311kts
04-Feb-17 15:33 40.939854 -74.294867 48 21336ft 311kts
04-Feb-17 15:34 40.946080 -74.189833 124 21336ft 311kts
04-Feb-17 15:35 40.889450 -74.105169 154 21327ft 311kts
04-Feb-17 15:36 40.806881 -74.077676 167 20304ft 306kts
04-Feb-17 15:37 40.725832 -74.053296 167 19352ft 301kts
04-Feb-17 15:38 40.645595 -74.029214 167 18124ft 295kts
04-Feb-17 15:39 40.566478 -74.005516 167 16695ft 288kts
04-Feb-17 15:40 40.489391 -73.982473 167 15309ft 282kts
04-Feb-17 15:41 40.414089 -73.960009 167 13965ft 276kts
04-Feb-17 15:42 40.357182 -73.904523 102 12595ft 270kts
04-Feb-17 15:43 40.347346 -73.808009 97 11324ft 265kts
04-Feb-17 15:44 40.338259 -73.713123 97 9984ft 260kts
04-Feb-17 15:45 40.345762 -73.626925 44 8329ft 239kts
04-Feb-17 15:46 40.402591 -73.585405 26 6562ft 234kts
04-Feb-17 15:47 40.459991 -73.548302 13 4776ft 228kts
04-Feb-17 15:48 40.509263 -73.571228 326 3360ft 240kts
04-Feb-17 15:49 40.564200 -73.633179 302 2001ft 198kts
04-Feb-17 15:50 40.589896 -73.688051 298 1631ft 160kts
04-Feb-17 15:51 40.607829 -73.727455 297 999ft 147kts
04-Feb-17 15:52 40.626581 -73.768703 297 274ft 119kts
04-Feb-17 15:53 40.637567 -73.792842 313 25ft 18kts
04-Feb-17 15:54 40.637805 -73.790625 120 24ft 16kts
04-Feb-17 15:55 40.633361 -73.780370 98 25ft 27kts
04-Feb-17 15:56 40.639900 -73.773364 31 24ft 51kts
04-Feb-17 15:57 40.646236 -73.767697 126 24ft 16kts
04-Feb-17 15:58 40.644990 -73.767770 212 25ft 0kts
04-Feb-17 15:59 40.644990 -73.767770 212 25ft 0kts
04-Feb-17 16:00 40.644990 -73.767770 212 25ft 0kts
04-Feb-17 16:01 40.644990 -73.767770 212 25ft 0kts
04-Feb-17 16:02 40.644990 -73.767770 212 25ft 0kts
04-Feb-17 16:03 40.644990 -73.767770 212 25ft 0kts
04-Feb-17 16:04 40.644990 -73.767770 212 25ft 0kts

Navigation Log

Ident Type
Flight plan parsing failed, navigation log unavailable